SKCC/CUC METAR and TAF weather

Enter ICAO airport designator
Station Type Date Time Source
SKCC METAR 2019/08/20 10:00 UTC NOAA

SKCC 201000Z 17014KT 9999 SCT018 SCT080 27/17 A2995


Station Type Date Time Source
SKCC Decoded METAR 2019/08/20 10:00 UTC NOAA

Cucuta / Camilo Daza, Colombia (SKCC) 07-56N 072-31W 317M
Aug 20, 2019 - 06:00 AM EDT / 2019.08.20 1000 UTC
Wind: from the S (170 degrees) at 16 MPH (14 KT):0
Visibility: greater than 7 mile(s):0
Sky conditions: partly cloudy
Temperature: 80 F (27 C)
Dew Point: 62 F (17 C)
Relative Humidity: 54%
Pressure (altimeter): 29.95 in. Hg (1014 hPa)
ob: SKCC 201000Z 17014KT 9999 SCT018 SCT080 27/17 A2995
cycle: 10

Station Type Date Time Source
SKCC TAF 2019/08/20 06:30 UTC NOAA

TAF SKCC 200430Z 2006/2106 16020KT 9999 SCT023 SCT090
TEMPO 2014/2019 15030KT TX33/2018Z TN26/2011Z

Example: see airport list